createdAt,value
2022-12-31T00:01:28.207Z,94169.72
2022-12-31T00:03:55.318Z,94177.97
2022-12-31T00:06:30.594Z,94183.88
2022-12-31T00:08:59.171Z,94184.63
2022-12-31T00:11:27.032Z,94182.78
2022-12-31T00:13:53.838Z,94205.47
2022-12-31T00:16:33.328Z,94203.13
2022-12-31T00:19:00.534Z,94193.31
2022-12-31T00:21:32.923Z,94181.25
2022-12-31T00:23:59.886Z,94194.16
2022-12-31T00:26:31.015Z,94152.22
2022-12-31T00:28:59.021Z,94190.56
2022-12-31T00:31:33.878Z,94179.31
2022-12-31T00:34:00.665Z,94181.28
2022-12-31T00:36:30.161Z,94138.25
2022-12-31T00:38:58.287Z,94166.38
2022-12-31T00:41:26.072Z,94172.16
2022-12-31T00:43:53.021Z,94169.53
2022-12-31T00:46:20.153Z,94173.44
2022-12-31T00:48:46.987Z,94166.38
2022-12-31T00:51:16.310Z,94155.28
2022-12-31T00:53:43.512Z,94151.78
2022-12-31T00:56:13.114Z,94157.28
2022-12-31T00:58:39.989Z,94166.63
2022-12-31T01:01:18.222Z,94153.69
2022-12-31T01:03:45.721Z,94163.09
2022-12-31T01:06:12.786Z,94164.19
2022-12-31T01:08:39.295Z,94145.84
2022-12-31T01:11:24.599Z,94160.63
2022-12-31T01:14:04.236Z,94161.50
2022-12-31T01:16:42.343Z,94187.00
2022-12-31T01:19:15.249Z,94187.31
2022-12-31T01:21:43.034Z,94195.94
2022-12-31T01:24:11.553Z,94191.69
2022-12-31T01:26:38.690Z,94199.53
2022-12-31T01:29:06.689Z,94227.72
2022-12-31T01:31:34.371Z,94223.34
2022-12-31T01:34:01.363Z,94214.69
2022-12-31T01:36:29.920Z,94226.44
2022-12-31T01:38:58.577Z,94227.63
2022-12-31T01:41:29.974Z,94220.22
2022-12-31T01:44:01.840Z,94246.34
2022-12-31T01:46:39.821Z,94253.69
2022-12-31T01:49:23.984Z,94264.66
2022-12-31T01:52:02.191Z,94239.50
2022-12-31T01:54:32.389Z,94245.81
2022-12-31T01:56:59.266Z,94255.47
2022-12-31T01:59:29.148Z,94264.47
2022-12-31T02:01:56.204Z,94268.38
2022-12-31T02:04:24.873Z,94253.56
2022-12-31T02:06:56.065Z,94263.31
2022-12-31T02:09:22.868Z,94270.69
2022-12-31T02:11:49.389Z,94272.59
2022-12-31T02:14:21.058Z,94277.22
2022-12-31T02:16:56.735Z,94262.41
2022-12-31T02:19:47.695Z,94255.00
2022-12-31T02:22:56.321Z,94270.72
2022-12-31T02:25:37.936Z,94280.94
2022-12-31T02:28:19.772Z,94274.66
2022-12-31T02:30:51.655Z,94273.88
2022-12-31T02:33:25.872Z,94260.47
2022-12-31T02:36:06.379Z,94272.19
2022-12-31T02:38:38.439Z,94262.78
2022-12-31T02:41:05.013Z,94257.31
2022-12-31T02:43:31.524Z,94245.16
2022-12-31T02:46:12.113Z,94262.78
2022-12-31T02:49:16.067Z,94262.72
2022-12-31T02:52:10.040Z,94270.63
2022-12-31T02:55:13.993Z,94249.06
2022-12-31T02:57:46.908Z,94253.72
2022-12-31T03:00:35.069Z,94263.47
2022-12-31T03:03:03.660Z,94276.31
2022-12-31T03:05:37.441Z,94280.25
2022-12-31T03:08:04.025Z,94290.78
2022-12-31T03:10:30.553Z,94276.31
2022-12-31T03:12:57.304Z,94300.59
2022-12-31T03:15:27.147Z,94274.34
2022-12-31T03:18:02.550Z,94308.47
2022-12-31T03:20:52.249Z,94295.13
2022-12-31T03:24:06.936Z,94307.75
2022-12-31T03:26:33.436Z,94311.84
2022-12-31T03:28:59.927Z,94305.13
2022-12-31T03:31:27.959Z,94321.63
2022-12-31T03:33:54.452Z,94313.88
2022-12-31T03:36:20.969Z,94315.44
2022-12-31T03:38:51.231Z,94316.63
2022-12-31T03:41:19.315Z,94311.56
2022-12-31T03:43:45.867Z,94310.47
2022-12-31T03:46:12.408Z,94309.28
2022-12-31T03:48:39.926Z,94322.19
2022-12-31T03:51:06.417Z,94309.63
2022-12-31T03:53:34.752Z,94315.50
2022-12-31T03:56:01.266Z,94308.06
2022-12-31T03:58:27.785Z,94317.41
2022-12-31T04:00:54.343Z,94305.28
2022-12-31T04:03:20.946Z,94312.31
2022-12-31T04:05:55.611Z,94335.44
2022-12-31T04:08:22.196Z,94315.00
2022-12-31T04:10:49.274Z,94319.66
2022-12-31T04:13:15.789Z,94320.38
2022-12-31T04:15:42.300Z,94310.59
2022-12-31T04:18:08.824Z,94321.59
2022-12-31T04:20:35.327Z,94310.63
2022-12-31T04:23:01.831Z,94311.38
2022-12-31T04:25:28.331Z,94305.56
2022-12-31T04:27:54.872Z,94322.84
2022-12-31T04:30:21.417Z,94329.88
2022-12-31T04:32:47.914Z,94319.63
2022-12-31T04:35:14.437Z,94321.97
2022-12-31T04:37:40.940Z,94337.63
2022-12-31T04:40:08.397Z,94331.44
2022-12-31T04:42:36.253Z,94316.88
2022-12-31T04:45:03.994Z,94343.47
2022-12-31T04:47:30.607Z,94331.34
2022-12-31T04:49:57.101Z,94330.53
2022-12-31T04:52:23.664Z,94341.53
2022-12-31T04:54:50.176Z,94336.81
2022-12-31T04:57:16.705Z,94355.19
2022-12-31T04:59:43.240Z,94354.47
2022-12-31T05:02:09.954Z,94360.78
2022-12-31T05:04:36.614Z,94343.44
2022-12-31T05:07:03.180Z,94353.22
2022-12-31T05:09:30.962Z,94372.44
2022-12-31T05:11:57.629Z,94353.56
2022-12-31T05:14:24.380Z,94352.34
2022-12-31T05:16:51.116Z,94357.44
2022-12-31T05:19:17.735Z,94335.50
2022-12-31T05:22:04.276Z,94349.28
2022-12-31T05:24:31.533Z,94342.97
2022-12-31T05:26:58.043Z,94358.63
2022-12-31T05:29:24.556Z,94366.06
2022-12-31T05:31:52.234Z,94358.38
2022-12-31T05:34:18.806Z,94367.91
2022-12-31T05:36:45.327Z,94363.59
2022-12-31T05:39:12.045Z,94356.88
2022-12-31T05:41:38.547Z,94360.47
2022-12-31T05:44:05.059Z,94375.75
2022-12-31T05:46:31.599Z,94386.63
2022-12-31T05:48:58.106Z,94391.72
2022-12-31T05:51:24.605Z,94375.66
2022-12-31T05:53:51.093Z,94392.56
2022-12-31T05:56:17.829Z,94399.28
2022-12-31T05:58:44.347Z,94375.34
2022-12-31T06:01:10.867Z,94405.38
2022-12-31T06:03:37.388Z,94412.44
2022-12-31T06:06:05.310Z,94408.22
2022-12-31T06:08:31.853Z,94434.50
2022-12-31T06:10:58.472Z,94424.19
2022-12-31T06:13:25.002Z,94411.91
2022-12-31T06:15:51.567Z,94408.03
2022-12-31T06:18:18.069Z,94422.31
2022-12-31T06:20:44.577Z,94413.09
2022-12-31T06:23:11.356Z,94409.66
2022-12-31T06:25:37.874Z,94406.16
2022-12-31T06:28:05.492Z,94405.88
2022-12-31T06:30:32.487Z,94414.47
2022-12-31T06:32:58.979Z,94414.13
2022-12-31T06:35:25.518Z,94406.25
2022-12-31T06:37:52.252Z,94406.22
2022-12-31T06:40:18.746Z,94391.66
2022-12-31T06:42:45.257Z,94408.25
2022-12-31T06:45:11.790Z,94396.13
2022-12-31T06:47:38.377Z,94400.50
2022-12-31T06:50:05.384Z,94410.75
2022-12-31T06:52:31.866Z,94416.16
2022-12-31T06:54:58.971Z,94425.16
2022-12-31T06:57:25.767Z,94424.84
2022-12-31T06:59:52.603Z,94412.94
2022-12-31T07:02:44.853Z,94410.50
2022-12-31T07:05:30.010Z,94407.41
2022-12-31T07:08:21.664Z,94416.56
2022-12-31T07:11:05.963Z,94428.06
2022-12-31T07:13:57.331Z,94424.47
2022-12-31T07:16:40.335Z,94434.34
2022-12-31T07:19:09.808Z,94433.53
2022-12-31T07:21:41.125Z,94436.59
2022-12-31T07:24:10.057Z,94426.44
2022-12-31T07:27:06.391Z,94439.84
2022-12-31T07:30:03.919Z,94442.19
2022-12-31T07:33:03.994Z,94451.59
2022-12-31T07:35:48.559Z,94450.38
2022-12-31T07:38:32.790Z,94454.53
2022-12-31T07:41:09.353Z,94449.75
2022-12-31T07:43:42.800Z,94462.97
2022-12-31T07:46:35.778Z,94455.34
2022-12-31T07:49:03.867Z,94458.88
2022-12-31T07:51:30.498Z,94462.06
2022-12-31T07:53:57.027Z,94452.50
2022-12-31T07:56:23.585Z,94444.97
2022-12-31T07:59:05.219Z,94460.31
2022-12-31T08:01:40.771Z,94468.63
2022-12-31T08:04:18.083Z,94466.66
2022-12-31T08:06:59.332Z,94462.59
2022-12-31T08:09:36.517Z,94474.63
2022-12-31T08:12:03.916Z,94465.56
2022-12-31T08:14:30.993Z,94468.53
2022-12-31T08:16:58.038Z,94464.03
2022-12-31T08:19:25.837Z,94459.25
2022-12-31T08:22:25.776Z,94468.94
2022-12-31T08:25:11.142Z,94474.28
2022-12-31T08:27:43.235Z,94478.19
2022-12-31T08:30:19.027Z,94475.53
2022-12-31T08:33:11.218Z,94486.44
2022-12-31T08:35:59.017Z,94490.22
2022-12-31T08:38:43.280Z,94485.31
2022-12-31T08:41:28.047Z,94484.59
2022-12-31T08:44:10.351Z,94493.53
2022-12-31T08:46:59.739Z,94502.28
2022-12-31T08:49:28.049Z,94495.84
2022-12-31T08:51:54.904Z,94496.22
2022-12-31T08:54:21.686Z,94487.53
2022-12-31T08:56:53.384Z,94490.56
2022-12-31T08:59:25.694Z,94472.31
2022-12-31T09:02:07.501Z,94480.56
2022-12-31T09:05:01.831Z,94496.78
2022-12-31T09:07:40.345Z,94509.56
2022-12-31T09:10:20.676Z,94494.00
2022-12-31T09:12:54.758Z,94484.13
2022-12-31T09:15:27.069Z,94496.72
2022-12-31T09:17:53.808Z,94476.44
2022-12-31T09:20:41.807Z,94480.25
2022-12-31T09:23:10.276Z,94488.34
2022-12-31T09:25:45.426Z,94488.03
2022-12-31T09:28:17.858Z,94484.91
2022-12-31T09:31:14.740Z,94486.91
2022-12-31T09:34:06.712Z,94502.88
2022-12-31T09:36:48.143Z,94503.38
2022-12-31T09:39:43.114Z,94502.34
2022-12-31T09:42:26.611Z,94503.84
2022-12-31T09:45:09.545Z,94514.47
2022-12-31T09:48:11.193Z,94496.69
2022-12-31T09:50:52.644Z,94510.63
2022-12-31T09:53:24.994Z,94498.44
2022-12-31T09:56:10.145Z,94499.13
2022-12-31T09:58:46.533Z,94508.09
2022-12-31T10:01:19.098Z,94484.19
2022-12-31T10:04:30.204Z,94487.53
2022-12-31T10:07:15.320Z,94492.88
2022-12-31T10:10:09.270Z,94501.31
2022-12-31T10:12:59.133Z,94502.38
2022-12-31T10:15:40.253Z,94504.63
2022-12-31T10:18:23.215Z,94502.22
2022-12-31T10:21:04.271Z,94481.34
2022-12-31T10:24:10.076Z,94487.06
2022-12-31T10:27:05.008Z,94485.22
2022-12-31T10:29:59.181Z,94489.84
2022-12-31T10:32:34.795Z,94493.38
2022-12-31T10:35:18.354Z,94496.19
2022-12-31T10:38:06.447Z,94485.91
2022-12-31T10:40:54.455Z,94495.59
2022-12-31T10:43:55.433Z,94490.44
2022-12-31T10:46:27.864Z,94482.16
2022-12-31T10:49:22.214Z,94477.81
2022-12-31T10:52:10.397Z,94469.28
2022-12-31T10:55:33.702Z,94466.88
2022-12-31T10:58:15.197Z,94458.88
2022-12-31T11:00:53.420Z,94465.75
2022-12-31T11:04:13.477Z,94459.63
2022-12-31T11:07:21.435Z,94449.53
2022-12-31T11:10:09.607Z,94449.94
2022-12-31T11:12:46.935Z,94435.63
2022-12-31T11:15:22.441Z,94431.81
2022-12-31T11:18:12.997Z,94441.94
2022-12-31T11:21:00.241Z,94435.69
2022-12-31T11:23:36.208Z,94435.19
2022-12-31T11:26:21.804Z,94431.72
2022-12-31T11:28:57.286Z,94433.13
2022-12-31T11:31:39.063Z,94439.34
2022-12-31T11:34:27.438Z,94431.91
2022-12-31T11:37:18.163Z,94423.72
2022-12-31T11:39:56.771Z,94423.25
2022-12-31T11:42:45.975Z,94415.41
2022-12-31T11:45:18.333Z,94406.69
2022-12-31T11:48:29.250Z,94411.94
2022-12-31T11:51:06.156Z,94405.81
2022-12-31T11:53:46.302Z,94409.72
2022-12-31T11:56:18.397Z,94405.91
2022-12-31T11:58:56.052Z,94407.81
2022-12-31T12:01:52.149Z,94411.44
2022-12-31T12:04:18.691Z,94412.63
2022-12-31T12:06:46.005Z,94394.69
2022-12-31T12:09:22.026Z,94408.25
2022-12-31T12:11:59.365Z,94408.41
2022-12-31T12:14:40.891Z,94399.00
2022-12-31T12:17:08.474Z,94408.16
2022-12-31T12:19:41.893Z,94400.13
2022-12-31T12:22:22.249Z,94390.13
2022-12-31T12:25:04.634Z,94386.50
2022-12-31T12:27:34.532Z,94392.91
2022-12-31T12:30:30.323Z,94384.25
2022-12-31T12:33:00.255Z,94387.47
2022-12-31T12:35:32.531Z,94381.66
2022-12-31T12:38:07.726Z,94376.97
2022-12-31T12:40:35.285Z,94368.78
2022-12-31T12:43:02.950Z,94364.81
2022-12-31T12:45:41.651Z,94367.28
2022-12-31T12:48:18.923Z,94367.38
2022-12-31T12:50:48.910Z,94364.03
2022-12-31T12:53:37.173Z,94357.47
2022-12-31T12:56:18.817Z,94365.28
2022-12-31T12:59:12.195Z,94355.84
2022-12-31T13:01:42.623Z,94360.78
2022-12-31T13:04:34.104Z,94357.56
2022-12-31T13:07:19.353Z,94353.53
2022-12-31T13:09:57.930Z,94358.28
2022-12-31T13:15:46.234Z,94346.97
2022-12-31T13:18:36.867Z,94348.63
2022-12-31T13:21:09.862Z,94348.41
2022-12-31T13:23:43.481Z,94350.34
2022-12-31T13:26:28.267Z,94354.88
2022-12-31T13:28:56.538Z,94359.81
2022-12-31T13:31:30.174Z,94354.03
2022-12-31T13:34:03.100Z,94347.97
2022-12-31T13:36:32.715Z,94354.34
2022-12-31T13:39:02.600Z,94356.34
2022-12-31T13:42:06.707Z,94357.63
2022-12-31T13:44:39.546Z,94355.53
2022-12-31T13:47:13.667Z,94362.16
2022-12-31T13:49:44.332Z,94366.56
2022-12-31T13:52:42.727Z,94368.53
2022-12-31T13:55:32.139Z,94370.38
2022-12-31T13:58:17.744Z,94370.03
2022-12-31T14:00:50.199Z,94368.91
2022-12-31T14:03:27.333Z,94373.81
2022-12-31T14:06:08.212Z,94376.53
2022-12-31T14:08:34.748Z,94372.06
2022-12-31T14:11:19.975Z,94381.59
2022-12-31T14:14:15.167Z,94383.94
2022-12-31T14:16:49.295Z,94379.06
2022-12-31T14:19:21.365Z,94391.03
2022-12-31T14:22:15.108Z,94391.53
2022-12-31T14:24:50.568Z,94395.72
2022-12-31T14:27:29.726Z,94401.28
2022-12-31T14:30:01.576Z,94393.16
2022-12-31T14:32:55.060Z,94389.81
2022-12-31T14:35:46.899Z,94390.09
2022-12-31T14:38:35.372Z,94396.47
2022-12-31T14:41:53.244Z,94400.88
2022-12-31T14:44:40.982Z,94401.81
2022-12-31T14:47:21.022Z,94397.59
2022-12-31T14:50:11.527Z,94408.69
2022-12-31T14:53:04.369Z,94410.50
2022-12-31T14:55:34.002Z,94404.34
2022-12-31T14:58:27.313Z,94413.03
2022-12-31T15:00:55.888Z,94416.16
2022-12-31T15:03:31.516Z,94413.53
2022-12-31T15:06:22.813Z,94422.59
2022-12-31T15:09:08.702Z,94426.31
2022-12-31T15:12:06.374Z,94417.84
2022-12-31T15:14:37.383Z,94418.69
2022-12-31T15:17:26.622Z,94414.88
2022-12-31T15:20:31.591Z,94413.78
2022-12-31T15:22:58.731Z,94411.88
2022-12-31T15:25:40.829Z,94417.09
2022-12-31T15:28:29.166Z,94411.38
2022-12-31T15:31:03.541Z,94415.34
2022-12-31T15:33:53.401Z,94415.81
2022-12-31T15:36:22.764Z,94410.00
2022-12-31T15:38:50.460Z,94418.25
2022-12-31T15:41:28.093Z,94406.97
2022-12-31T15:43:57.666Z,94412.91
2022-12-31T15:46:29.344Z,94411.41
2022-12-31T15:49:05.153Z,94418.06
2022-12-31T15:51:46.861Z,94418.03
2022-12-31T15:54:24.237Z,94425.50
2022-12-31T15:56:53.140Z,94427.53
2022-12-31T15:59:21.797Z,94418.13
2022-12-31T16:01:48.764Z,94423.97
2022-12-31T16:04:27.670Z,94436.94
2022-12-31T16:06:57.724Z,94436.94
2022-12-31T16:09:31.264Z,94437.28
2022-12-31T16:11:59.399Z,94440.81
2022-12-31T16:14:35.207Z,94433.00
2022-12-31T16:17:02.390Z,94427.78
2022-12-31T16:19:41.950Z,94440.34
2022-12-31T16:22:14.576Z,94432.09
2022-12-31T16:25:02.828Z,94444.56
2022-12-31T16:27:29.742Z,94450.84
2022-12-31T16:30:08.421Z,94436.56
2022-12-31T16:32:37.830Z,94441.63
2022-12-31T16:35:23.615Z,94442.16
2022-12-31T16:38:14.158Z,94442.03
2022-12-31T16:40:43.601Z,94453.75
2022-12-31T16:43:26.036Z,94444.19
2022-12-31T16:45:54.994Z,94436.50
2022-12-31T16:48:21.541Z,94443.22
2022-12-31T16:50:52.719Z,94447.13
2022-12-31T16:53:26.077Z,94453.09
2022-12-31T16:56:01.531Z,94453.91
2022-12-31T16:58:34.725Z,94440.88
2022-12-31T17:01:16.422Z,94446.38
2022-12-31T17:03:47.361Z,94453.16
2022-12-31T17:06:18.874Z,94437.03
2022-12-31T17:09:04.928Z,94444.88
2022-12-31T17:11:33.809Z,94448.03
2022-12-31T17:14:06.760Z,94457.00
2022-12-31T17:17:04.973Z,94451.97
2022-12-31T17:19:33.653Z,94461.31
2022-12-31T17:22:00.967Z,94464.41
2022-12-31T17:24:27.805Z,94470.34
2022-12-31T17:26:54.419Z,94452.31
2022-12-31T17:29:26.444Z,94459.66
2022-12-31T17:32:00.451Z,94449.56
2022-12-31T17:34:31.651Z,94458.56
2022-12-31T17:37:00.221Z,94456.28
2022-12-31T17:39:38.646Z,94475.75
2022-12-31T17:42:05.277Z,94447.16
2022-12-31T17:44:34.093Z,94446.69
2022-12-31T17:47:02.653Z,94454.25
2022-12-31T17:49:30.940Z,94457.22
2022-12-31T17:51:57.640Z,94460.00
2022-12-31T17:54:24.179Z,94444.75
2022-12-31T17:56:52.607Z,94459.50
2022-12-31T17:59:23.104Z,94455.91
2022-12-31T18:01:49.921Z,94470.75
2022-12-31T18:04:18.413Z,94466.56
2022-12-31T18:06:45.325Z,94474.97
2022-12-31T18:09:11.919Z,94467.91
2022-12-31T18:11:40.134Z,94473.06
2022-12-31T18:14:07.194Z,94464.47
2022-12-31T18:16:34.183Z,94468.50
2022-12-31T18:19:01.215Z,94470.13
2022-12-31T18:21:32.398Z,94462.31
2022-12-31T18:26:27.349Z,94459.59
2022-12-31T18:28:53.954Z,94465.34
2022-12-31T18:31:27.194Z,94458.50
2022-12-31T18:33:55.945Z,94463.13
2022-12-31T18:36:23.736Z,94473.06
2022-12-31T18:38:50.507Z,94472.88
2022-12-31T18:41:20.823Z,94471.69
2022-12-31T18:43:47.766Z,94474.75
2022-12-31T18:46:17.854Z,94476.66
2022-12-31T18:48:44.464Z,94476.72
2022-12-31T18:51:17.275Z,94473.69
2022-12-31T18:53:44.517Z,94472.75
2022-12-31T18:56:18.061Z,94467.38
2022-12-31T18:58:45.420Z,94481.94
2022-12-31T19:01:29.858Z,94472.91
2022-12-31T19:03:58.932Z,94471.00
2022-12-31T19:06:26.551Z,94483.66
2022-12-31T19:08:53.102Z,94491.06
2022-12-31T19:11:20.116Z,94486.38
2022-12-31T19:13:47.487Z,94494.25
2022-12-31T19:16:14.251Z,94493.56
2022-12-31T19:18:41.786Z,94492.06
2022-12-31T19:21:17.267Z,94495.59
2022-12-31T19:23:44.540Z,94501.13
2022-12-31T19:26:20.154Z,94497.19
2022-12-31T19:28:47.494Z,94499.50
2022-12-31T19:31:14.601Z,94498.31
2022-12-31T19:33:41.318Z,94492.47
2022-12-31T19:36:14.685Z,94501.25
2022-12-31T19:38:41.199Z,94504.06
2022-12-31T19:41:15.013Z,94497.47
2022-12-31T19:43:41.527Z,94503.75
2022-12-31T19:46:12.617Z,94495.13
2022-12-31T19:48:39.198Z,94488.91
2022-12-31T19:51:09.907Z,94488.09
2022-12-31T19:53:36.400Z,94475.19
2022-12-31T19:56:03.407Z,94485.75
2022-12-31T19:58:29.932Z,94471.69
2022-12-31T20:01:02.439Z,94489.00
2022-12-31T20:03:31.048Z,94480.47
2022-12-31T20:06:09.511Z,94473.75
2022-12-31T20:08:37.967Z,94473.16
2022-12-31T20:11:11.882Z,94466.69
2022-12-31T20:13:39.304Z,94467.38
2022-12-31T20:16:07.924Z,94458.72
2022-12-31T20:18:37.343Z,94473.31
2022-12-31T20:21:04.620Z,94474.59
2022-12-31T20:23:34.971Z,94472.00
2022-12-31T20:26:02.030Z,94484.06
2022-12-31T20:28:29.712Z,94481.25
2022-12-31T20:30:56.329Z,94487.91
2022-12-31T20:33:23.178Z,94477.38
2022-12-31T20:35:49.877Z,94486.84
2022-12-31T20:38:16.511Z,94484.19
2022-12-31T20:40:46.639Z,94485.03
2022-12-31T20:43:14.024Z,94489.72
2022-12-31T20:45:41.728Z,94491.78
2022-12-31T20:48:08.308Z,94485.84
2022-12-31T20:50:34.877Z,94486.13
2022-12-31T20:53:01.948Z,94486.56
2022-12-31T20:55:30.650Z,94491.28
2022-12-31T20:57:58.506Z,94490.63
2022-12-31T21:00:25.007Z,94493.03
2022-12-31T21:02:57.899Z,94492.34
2022-12-31T21:05:31.026Z,94491.22
2022-12-31T21:07:57.676Z,94493.63
2022-12-31T21:10:24.193Z,94500.75
2022-12-31T21:12:53.532Z,94492.91
2022-12-31T21:15:21.407Z,94501.16
2022-12-31T21:17:48.029Z,94505.16
2022-12-31T21:20:14.537Z,94503.56
2022-12-31T21:22:41.129Z,94505.16
2022-12-31T21:25:07.861Z,94518.91
2022-12-31T21:27:35.564Z,94516.63
2022-12-31T21:30:18.238Z,94527.56
2022-12-31T21:32:45.752Z,94523.22
2022-12-31T21:35:42.240Z,94533.47
2022-12-31T21:38:03.374Z,94538.56
2022-12-31T21:40:30.866Z,94539.31
2022-12-31T21:42:57.842Z,94547.91
2022-12-31T21:45:24.443Z,94550.97
2022-12-31T21:48:09.759Z,94552.84
2022-12-31T21:50:36.267Z,94566.09
2022-12-31T21:53:06.123Z,94561.03
2022-12-31T21:55:51.339Z,94562.59
2022-12-31T21:58:27.055Z,94573.50
2022-12-31T22:01:13.681Z,94575.44
2022-12-31T22:03:40.710Z,94571.97
2022-12-31T22:06:13.417Z,94575.91
2022-12-31T22:08:45.084Z,94589.59
2022-12-31T22:11:12.928Z,94585.03
2022-12-31T22:13:40.123Z,94584.63
2022-12-31T22:16:07.750Z,94583.28
2022-12-31T22:18:38.716Z,94584.41
2022-12-31T22:21:18.242Z,94580.97
2022-12-31T22:23:48.128Z,94587.72
2022-12-31T22:26:16.353Z,94587.84
2022-12-31T22:28:44.554Z,94595.31
2022-12-31T22:31:19.950Z,94582.38
2022-12-31T22:33:46.950Z,94587.00
2022-12-31T22:36:16.513Z,94589.00
2022-12-31T22:38:43.678Z,94598.44
2022-12-31T22:41:12.962Z,94600.53
2022-12-31T22:43:42.778Z,94600.16
2022-12-31T22:46:12.771Z,94600.66
2022-12-31T22:48:39.904Z,94607.22
2022-12-31T22:51:07.729Z,94615.81
2022-12-31T22:53:34.284Z,94610.75
2022-12-31T22:56:00.981Z,94612.75
2022-12-31T22:58:27.602Z,94618.25
2022-12-31T23:00:54.273Z,94622.19
2022-12-31T23:03:20.974Z,94619.00
2022-12-31T23:05:51.776Z,94625.22
2022-12-31T23:08:23.570Z,94606.41
2022-12-31T23:11:01.603Z,94631.50
2022-12-31T23:14:00.140Z,94612.25
2022-12-31T23:16:48.372Z,94620.03
2022-12-31T23:19:33.919Z,94612.94
2022-12-31T23:22:19.264Z,94626.63
2022-12-31T23:24:45.807Z,94617.53
2022-12-31T23:27:12.694Z,94625.44
2022-12-31T23:29:46.090Z,94616.38
2022-12-31T23:32:13.699Z,94612.53
2022-12-31T23:34:40.200Z,94624.78
2022-12-31T23:37:06.719Z,94612.53
2022-12-31T23:39:33.213Z,94623.94
2022-12-31T23:42:00.515Z,94618.72
2022-12-31T23:44:28.185Z,94617.22
2022-12-31T23:46:55.038Z,94617.13
2022-12-31T23:49:22.132Z,94627.56
2022-12-31T23:51:48.740Z,94622.97
2022-12-31T23:54:15.827Z,94625.03
2022-12-31T23:56:42.457Z,94627.34
2022-12-31T23:59:10.402Z,94623.41
